Time;durP1;ratioP1;P1;durP2;ratioP2;P2;SDS_P1;SDS_P2;PMS_P1;PMS_P2;Temp;Humidity;BMP_temperature;BMP_pressure;BME280_temperature;BME280_humidity;BME280_pressure;Samples;Min_cycle;Max_cycle;Signal;HPM_P1;HPM_P2
2023/03/11 00:00:27;;;;;;;0.95;0.60;;;;;;;;;;7387150;19;19911;-70
2023/03/11 00:02:55;;;;;;;1.23;0.70;;;;;;;;;;7388515;19;20350;-71
2023/03/11 00:05:23;;;;;;;2.35;1.02;;;;;;;;;;7386569;19;20345;-70
2023/03/11 00:07:49;;;;;;;5.38;1.20;;;;;;;;;;7388859;19;20002;-69
2023/03/11 00:10:45;;;;;;;0.65;0.65;;;;;;;;;;7388046;19;20443;-69
2023/03/11 00:13:14;;;;;;;1.00;0.90;;;;;;;;;;7385946;19;20001;-70
2023/03/11 00:15:40;;;;;;;2.63;1.02;;;;;;;;;;7385939;19;19999;-70
2023/03/11 00:18:06;;;;;;;0.75;0.60;;;;;;;;;;7386379;19;19999;-71
2023/03/11 00:20:34;;;;;;;1.17;0.68;;;;;;;;;;7388279;19;20002;-70
2023/03/11 00:23:00;;;;;;;1.13;0.80;;;;;;;;;;7387460;19;19999;-70
2023/03/11 00:25:28;;;;;;;1.15;1.00;;;;;;;;;;7385339;19;20455;-70
2023/03/11 00:27:53;;;;;;;2.20;0.77;;;;;;;;;;7388340;19;20005;-70
2023/03/11 00:30:20;;;;;;;2.58;1.00;;;;;;;;;;7387517;19;19998;-70
2023/03/11 00:32:53;;;;;;;3.08;0.88;;;;;;;;;;7387434;19;20093;-69
2023/03/11 00:35:23;;;;;;;3.60;0.82;;;;;;;;;;7384814;19;20010;-69
2023/03/11 00:37:55;;;;;;;4.63;0.82;;;;;;;;;;7387576;19;19999;-70
2023/03/11 00:40:22;;;;;;;3.03;0.75;;;;;;;;;;7387821;19;20002;-70
2023/03/11 00:42:47;;;;;;;4.78;1.17;;;;;;;;;;7387253;19;19995;-69
2023/03/11 00:45:14;;;;;;;1.08;0.60;;;;;;;;;;7386736;19;20054;-69
2023/03/11 00:47:40;;;;;;;1.48;0.77;;;;;;;;;;7387573;19;20005;-69
2023/03/11 00:50:06;;;;;;;1.23;0.80;;;;;;;;;;7388763;19;19991;-69
2023/03/11 00:52:32;;;;;;;2.78;0.90;;;;;;;;;;7389926;19;20122;-69
2023/03/11 00:54:58;;;;;;;0.52;0.52;;;;;;;;;;7385022;19;20078;-70
2023/03/11 00:57:23;;;;;;;3.28;1.13;;;;;;;;;;7387643;19;20371;-70
2023/03/11 00:59:48;;;;;;;4.95;1.13;;;;;;;;;;7385175;19;19995;-69
2023/03/11 01:02:14;;;;;;;2.35;0.90;;;;;;;;;;7387479;19;19999;-69
2023/03/11 01:04:39;;;;;;;1.20;1.00;;;;;;;;;;7386206;19;20015;-70
2023/03/11 01:07:04;;;;;;;0.73;0.70;;;;;;;;;;7387353;19;20479;-70
2023/03/11 01:09:30;;;;;;;3.95;1.13;;;;;;;;;;7384870;19;19994;-69
2023/03/11 01:11:55;;;;;;;2.47;1.05;;;;;;;;;;7387044;19;19994;-69
2023/03/11 01:14:21;;;;;;;3.22;0.77;;;;;;;;;;7383820;19;19999;-70
2023/03/11 01:16:46;;;;;;;2.38;0.80;;;;;;;;;;7385332;19;20087;-74
2023/03/11 01:19:12;;;;;;;2.80;1.02;;;;;;;;;;7387644;19;20007;-74
2023/03/11 01:21:37;;;;;;;1.50;0.82;;;;;;;;;;7387880;19;20005;-74
2023/03/11 01:24:06;;;;;;;3.80;1.00;;;;;;;;;;7388907;19;20001;-76
2023/03/11 01:26:31;;;;;;;2.17;1.08;;;;;;;;;;7388126;19;20010;-74
2023/03/11 01:28:56;;;;;;;4.47;1.30;;;;;;;;;;7386167;19;19995;-75
2023/03/11 01:31:21;;;;;;;1.85;0.55;;;;;;;;;;7388202;19;20006;-74
2023/03/11 01:33:47;;;;;;;5.97;1.35;;;;;;;;;;7390431;19;20007;-74
2023/03/11 01:36:12;;;;;;;4.30;1.02;;;;;;;;;;7384971;19;20023;-73
2023/03/11 01:38:37;;;;;;;1.15;0.82;;;;;;;;;;7385682;19;20006;-73
2023/03/11 01:41:03;;;;;;;1.50;0.75;;;;;;;;;;7389200;19;20002;-73
2023/03/11 01:43:43;;;;;;;2.67;0.93;;;;;;;;;;7387410;19;20079;-72
2023/03/11 01:46:24;;;;;;;3.55;0.93;;;;;;;;;;7386965;19;20104;-73
2023/03/11 01:49:01;;;;;;;3.22;1.00;;;;;;;;;;7387613;19;20010;-72
2023/03/11 01:51:37;;;;;;;3.78;1.15;;;;;;;;;;7387179;19;19999;-73
2023/03/11 01:54:24;;;;;;;4.38;0.93;;;;;;;;;;7386327;19;20031;-74
2023/03/11 01:56:50;;;;;;;2.30;0.82;;;;;;;;;;7386753;19;20021;-73
2023/03/11 01:59:21;;;;;;;3.50;1.08;;;;;;;;;;7385914;19;20536;-74
2023/03/11 02:01:57;;;;;;;2.20;1.13;;;;;;;;;;7386702;19;20055;-74
2023/03/11 02:04:23;;;;;;;6.90;1.60;;;;;;;;;;7386133;19;20007;-74
2023/03/11 02:06:48;;;;;;;7.25;1.20;;;;;;;;;;7383302;19;20006;-74
2023/03/11 02:09:13;;;;;;;1.85;0.77;;;;;;;;;;7386892;19;20007;-74
2023/03/11 02:11:39;;;;;;;3.95;1.23;;;;;;;;;;7386851;19;20003;-74
2023/03/11 02:14:07;;;;;;;1.73;0.98;;;;;;;;;;7385688;19;20023;-74
2023/03/11 02:16:33;;;;;;;4.30;1.05;;;;;;;;;;7385393;19;20027;-74
2023/03/11 02:19:03;;;;;;;5.38;1.20;;;;;;;;;;7384220;19;20472;-74
2023/03/11 02:21:31;;;;;;;4.30;1.13;;;;;;;;;;7393564;19;20033;-74
2023/03/11 02:24:20;;;;;;;5.40;1.05;;;;;;;;;;7393308;19;20073;-74
2023/03/11 02:27:01;;;;;;;5.78;1.30;;;;;;;;;;7391767;19;20003;-74
2023/03/11 02:29:28;;;;;;;2.15;1.00;;;;;;;;;;7393871;19;20036;-74
2023/03/11 02:31:55;;;;;;;3.83;1.10;;;;;;;;;;7393803;19;19998;-74
2023/03/11 02:34:25;;;;;;;4.07;1.48;;;;;;;;;;7391957;19;19999;-74
2023/03/11 02:36:50;;;;;;;5.30;1.30;;;;;;;;;;7391481;19;20006;-74
2023/03/11 02:39:16;;;;;;;3.15;1.15;;;;;;;;;;7391449;19;20516;-74
2023/03/11 02:41:44;;;;;;;2.50;0.88;;;;;;;;;;7391320;19;19995;-74
2023/03/11 02:44:13;;;;;;;2.25;1.05;;;;;;;;;;7392613;19;20003;-74
2023/03/11 02:46:40;;;;;;;2.85;1.42;;;;;;;;;;7391057;19;20010;-73
2023/03/11 02:49:06;;;;;;;3.38;1.10;;;;;;;;;;7392644;19;20009;-75
2023/03/11 02:51:31;;;;;;;5.55;1.20;;;;;;;;;;7393066;19;20003;-74
2023/03/11 02:54:01;;;;;;;4.55;1.27;;;;;;;;;;7392294;19;20559;-74
2023/03/11 02:56:27;;;;;;;4.85;1.42;;;;;;;;;;7391368;19;20492;-74
2023/03/11 02:58:53;;;;;;;6.68;1.40;;;;;;;;;;7392797;19;20007;-74
2023/03/11 03:01:18;;;;;;;1.88;0.90;;;;;;;;;;7392883;19;20362;-72
2023/03/11 03:03:43;;;;;;;2.83;1.08;;;;;;;;;;7392575;19;20015;-73
2023/03/11 03:06:09;;;;;;;2.70;1.05;;;;;;;;;;7390289;19;20058;-73
2023/03/11 03:08:34;;;;;;;3.53;1.33;;;;;;;;;;7392993;19;20686;-73
2023/03/11 03:11:00;;;;;;;3.28;1.00;;;;;;;;;;7392409;19;20074;-73
2023/03/11 03:13:29;;;;;;;6.05;1.38;;;;;;;;;;7392749;19;20006;-73
2023/03/11 03:15:55;;;;;;;4.20;1.80;;;;;;;;;;7389693;19;20322;-73
2023/03/11 03:18:24;;;;;;;3.70;1.02;;;;;;;;;;7390435;19;20094;-74
2023/03/11 03:20:50;;;;;;;2.30;1.25;;;;;;;;;;7392791;19;20031;-73
2023/03/11 03:23:16;;;;;;;4.55;1.17;;;;;;;;;;7393746;19;20002;-72
2023/03/11 03:25:43;;;;;;;3.28;1.00;;;;;;;;;;7392345;19;20014;-73
2023/03/11 03:28:10;;;;;;;3.60;1.00;;;;;;;;;;7392938;19;20495;-74
2023/03/11 03:30:36;;;;;;;2.80;1.20;;;;;;;;;;7391544;19;20062;-74
2023/03/11 03:33:01;;;;;;;4.28;1.00;;;;;;;;;;7388077;19;20006;-73
2023/03/11 03:35:26;;;;;;;7.45;1.60;;;;;;;;;;7389946;19;20043;-73
2023/03/11 03:37:52;;;;;;;2.33;1.15;;;;;;;;;;7390276;19;20011;-73
2023/03/11 03:40:17;;;;;;;6.15;1.35;;;;;;;;;;7391401;19;20353;-73
2023/03/11 03:42:43;;;;;;;4.45;1.73;;;;;;;;;;7386760;19;19995;-73
2023/03/11 03:45:09;;;;;;;2.53;1.25;;;;;;;;;;7393404;19;20034;-72
2023/03/11 03:47:34;;;;;;;6.03;1.30;;;;;;;;;;7394346;19;19994;-74
2023/03/11 03:50:02;;;;;;;6.97;1.60;;;;;;;;;;7391277;19;20005;-72
2023/03/11 03:52:27;;;;;;;5.75;1.75;;;;;;;;;;7391499;19;20083;-72
2023/03/11 03:54:52;;;;;;;4.20;1.35;;;;;;;;;;7388108;19;20411;-73
2023/03/11 03:57:18;;;;;;;3.47;1.17;;;;;;;;;;7388840;19;19995;-72
2023/03/11 03:59:43;;;;;;;2.55;1.30;;;;;;;;;;7388818;19;19999;-74
2023/03/11 04:02:08;;;;;;;4.18;1.35;;;;;;;;;;7392125;19;19999;-73
2023/03/11 04:04:34;;;;;;;4.20;1.08;;;;;;;;;;7394454;19;20005;-73
2023/03/11 04:06:59;;;;;;;4.50;1.48;;;;;;;;;;7390996;19;20016;-74
2023/03/11 04:09:24;;;;;;;4.38;1.38;;;;;;;;;;7393645;19;20011;-74
2023/03/11 04:11:50;;;;;;;3.30;1.60;;;;;;;;;;7391188;19;20037;-74
2023/03/11 04:14:15;;;;;;;4.60;1.60;;;;;;;;;;7388946;19;19994;-73
2023/03/11 04:16:41;;;;;;;4.10;1.20;;;;;;;;;;7386971;19;20029;-74
2023/03/11 04:19:06;;;;;;;3.28;1.50;;;;;;;;;;7389780;19;20002;-74
2023/03/11 04:21:32;;;;;;;2.92;1.30;;;;;;;;;;7390260;19;19998;-74
2023/03/11 04:23:58;;;;;;;5.07;1.42;;;;;;;;;;7389220;19;19999;-74
2023/03/11 04:26:24;;;;;;;1.90;1.13;;;;;;;;;;7388794;19;20356;-75
2023/03/11 04:28:49;;;;;;;11.20;1.90;;;;;;;;;;7388022;19;20573;-75
2023/03/11 04:31:14;;;;;;;5.35;1.52;;;;;;;;;;7389905;19;20011;-74
2023/03/11 04:33:40;;;;;;;6.95;1.70;;;;;;;;;;7390259;19;19995;-74
2023/03/11 04:36:07;;;;;;;6.78;1.85;;;;;;;;;;7391206;19;20418;-74
2023/03/11 04:38:33;;;;;;;5.78;1.70;;;;;;;;;;7391614;19;20475;-74
2023/03/11 04:41:00;;;;;;;3.75;1.48;;;;;;;;;;7389728;19;20003;-74
2023/03/11 04:43:25;;;;;;;3.72;1.48;;;;;;;;;;7389268;19;20109;-74
2023/03/11 04:45:51;;;;;;;4.57;1.90;;;;;;;;;;7389941;19;19998;-72
2023/03/11 04:48:16;;;;;;;2.53;1.40;;;;;;;;;;7390003;19;19999;-73
2023/03/11 04:50:41;;;;;;;3.28;1.63;;;;;;;;;;7389213;19;20468;-73
2023/03/11 04:53:07;;;;;;;3.70;1.40;;;;;;;;;;7386502;19;20001;-74
2023/03/11 04:55:32;;;;;;;2.83;1.33;;;;;;;;;;7385221;19;20564;-72
2023/03/11 04:57:57;;;;;;;5.05;1.85;;;;;;;;;;7389587;19;20433;-73
2023/03/11 05:00:23;;;;;;;5.38;1.58;;;;;;;;;;7387486;19;20008;-74
2023/03/11 05:02:49;;;;;;;13.52;1.83;;;;;;;;;;7386791;19;19998;-74
2023/03/11 05:05:15;;;;;;;5.05;1.42;;;;;;;;;;7386736;19;20034;-74
2023/03/11 05:07:40;;;;;;;7.30;1.50;;;;;;;;;;7389462;19;20006;-73
2023/03/11 05:10:06;;;;;;;5.22;2.45;;;;;;;;;;7390604;19;19998;-75
2023/03/11 05:12:32;;;;;;;4.50;1.60;;;;;;;;;;7388452;19;20020;-74
2023/03/11 05:14:57;;;;;;;3.45;1.48;;;;;;;;;;7387975;19;20009;-74
2023/03/11 05:17:23;;;;;;;2.97;1.45;;;;;;;;;;7387192;19;19995;-74
2023/03/11 05:19:49;;;;;;;7.78;1.13;;;;;;;;;;7388320;19;19999;-73
2023/03/11 05:22:15;;;;;;;5.22;1.73;;;;;;;;;;7386837;19;20545;-74
2023/03/11 05:24:40;;;;;;;3.55;1.70;;;;;;;;;;7388715;19;19995;-74
2023/03/11 05:27:05;;;;;;;12.35;1.60;;;;;;;;;;7387522;19;19999;-74
2023/03/11 05:29:31;;;;;;;6.57;2.10;;;;;;;;;;7388612;19;20866;-72
2023/03/11 05:31:57;;;;;;;6.75;1.52;;;;;;;;;;7388989;19;20536;-74
2023/03/11 05:34:22;;;;;;;6.63;1.70;;;;;;;;;;7385534;19;20023;-72
2023/03/11 05:36:47;;;;;;;2.22;1.35;;;;;;;;;;7391385;19;20009;-74
2023/03/11 05:39:13;;;;;;;3.10;1.50;;;;;;;;;;7389947;19;20470;-73
2023/03/11 05:41:39;;;;;;;6.88;1.80;;;;;;;;;;7389114;19;19991;-72
2023/03/11 05:44:04;;;;;;;1.83;1.08;;;;;;;;;;7388827;19;19995;-72
2023/03/11 05:46:31;;;;;;;6.43;1.80;;;;;;;;;;7390540;19;20073;-72
2023/03/11 05:48:57;;;;;;;5.85;1.35;;;;;;;;;;7391276;19;20973;-71
2023/03/11 05:51:23;;;;;;;4.75;1.35;;;;;;;;;;7390118;19;20023;-73
2023/03/11 05:53:48;;;;;;;9.68;1.90;;;;;;;;;;7388635;19;20389;-71
2023/03/11 05:56:15;;;;;;;4.55;1.55;;;;;;;;;;7389127;19;20023;-71
2023/03/11 05:58:41;;;;;;;2.70;1.60;;;;;;;;;;7351005;19;20003;-72
2023/03/11 06:01:09;;;;;;;4.07;1.30;;;;;;;;;;7368487;19;20018;-73
2023/03/11 06:03:34;;;;;;;4.20;1.60;;;;;;;;;;7391254;19;20477;-73
2023/03/11 06:05:59;;;;;;;6.85;1.70;;;;;;;;;;7388753;19;19990;-72
2023/03/11 06:08:25;;;;;;;8.48;1.67;;;;;;;;;;7390850;19;19995;-72
2023/03/11 06:10:50;;;;;;;2.13;1.30;;;;;;;;;;7397199;19;20028;-76
2023/03/11 06:13:15;;;;;;;11.20;1.77;;;;;;;;;;7398032;19;20015;-74
2023/03/11 06:15:44;;;;;;;3.35;1.63;;;;;;;;;;7387772;19;19995;-74
2023/03/11 06:18:12;;;;;;;4.45;1.35;;;;;;;;;;7390052;19;20729;-74
2023/03/11 06:20:37;;;;;;;3.13;1.40;;;;;;;;;;7390113;19;20594;-73
2023/03/11 06:23:03;;;;;;;3.83;1.30;;;;;;;;;;7390391;19;20010;-73
2023/03/11 06:25:28;;;;;;;2.70;1.40;;;;;;;;;;7390065;19;19995;-74
2023/03/11 06:27:54;;;;;;;6.53;1.80;;;;;;;;;;7391412;19;20001;-74
2023/03/11 06:30:19;;;;;;;5.07;1.50;;;;;;;;;;7388284;19;20019;-74
2023/03/11 06:32:46;;;;;;;6.18;1.45;;;;;;;;;;7390388;19;19998;-72
2023/03/11 06:35:12;;;;;;;4.75;1.75;;;;;;;;;;7381066;19;20003;-73
2023/03/11 06:37:38;;;;;;;2.05;1.27;;;;;;;;;;7382475;19;19998;-73
2023/03/11 06:40:06;;;;;;;5.25;1.45;;;;;;;;;;7382052;19;20025;-73
2023/03/11 06:42:32;;;;;;;7.22;1.60;;;;;;;;;;7383574;19;20285;-73
2023/03/11 06:44:57;;;;;;;6.85;1.80;;;;;;;;;;7385560;19;20006;-73
2023/03/11 06:47:23;;;;;;;5.68;1.48;;;;;;;;;;7374808;19;20495;-73
2023/03/11 06:49:49;;;;;;;4.13;1.40;;;;;;;;;;7381344;19;19995;-75
2023/03/11 06:52:14;;;;;;;6.93;2.05;;;;;;;;;;7389491;19;19990;-75
2023/03/11 06:54:40;;;;;;;7.20;1.60;;;;;;;;;;7387165;19;20464;-74
2023/03/11 06:57:07;;;;;;;9.70;1.75;;;;;;;;;;7385375;19;20022;-74
2023/03/11 06:59:32;;;;;;;7.45;1.50;;;;;;;;;;7376120;19;20014;-75
2023/03/11 07:01:58;;;;;;;2.55;1.20;;;;;;;;;;7383047;19;20011;-77
2023/03/11 07:04:23;;;;;;;6.68;1.73;;;;;;;;;;7380150;19;20002;-76
2023/03/11 07:06:48;;;;;;;2.13;1.25;;;;;;;;;;7385373;19;20405;-74
2023/03/11 07:09:14;;;;;;;12.85;1.70;;;;;;;;;;7386920;19;20007;-74
2023/03/11 07:11:39;;;;;;;4.80;1.40;;;;;;;;;;7389280;19;20010;-74
2023/03/11 07:14:05;;;;;;;7.13;1.50;;;;;;;;;;7388857;19;20006;-75
2023/03/11 07:16:30;;;;;;;2.88;0.98;;;;;;;;;;7387660;19;20023;-75
2023/03/11 07:18:59;;;;;;;9.85;1.52;;;;;;;;;;7391845;19;20019;-76
2023/03/11 07:21:26;;;;;;;8.98;1.58;;;;;;;;;;7390422;19;20258;-75
2023/03/11 07:23:53;;;;;;;5.82;1.63;;;;;;;;;;7391312;19;20006;-73
2023/03/11 07:26:18;;;;;;;8.68;1.80;;;;;;;;;;7386234;19;20010;-74
2023/03/11 07:28:44;;;;;;;5.53;1.00;;;;;;;;;;7391294;19;20040;-74
2023/03/11 07:31:12;;;;;;;5.43;1.70;;;;;;;;;;7385798;19;20023;-74
2023/03/11 07:33:38;;;;;;;2.88;1.00;;;;;;;;;;7389418;19;20078;-74
2023/03/11 07:36:08;;;;;;;4.72;1.73;;;;;;;;;;7386517;19;20007;-76
2023/03/11 07:38:34;;;;;;;7.37;1.30;;;;;;;;;;7391561;19;20002;-75
2023/03/11 07:40:59;;;;;;;2.15;1.20;;;;;;;;;;7389316;19;20276;-76
2023/03/11 07:43:25;;;;;;;3.72;1.42;;;;;;;;;;7390393;19;20476;-76
2023/03/11 07:45:50;;;;;;;4.68;1.33;;;;;;;;;;7389173;19;20006;-78
2023/03/11 07:48:16;;;;;;;7.40;1.27;;;;;;;;;;7390300;19;20532;-76
2023/03/11 07:50:41;;;;;;;5.40;1.17;;;;;;;;;;7388589;19;20036;-76
2023/03/11 07:53:06;;;;;;;7.68;1.65;;;;;;;;;;7388760;19;20279;-77
2023/03/11 07:55:32;;;;;;;2.80;1.20;;;;;;;;;;7389992;19;20010;-76
2023/03/11 07:57:58;;;;;;;9.02;1.92;;;;;;;;;;7389546;19;20464;-77
2023/03/11 08:00:23;;;;;;;6.82;1.55;;;;;;;;;;7389662;19;20002;-77
2023/03/11 08:02:48;;;;;;;3.40;1.45;;;;;;;;;;7388827;19;20006;-76
2023/03/11 08:05:14;;;;;;;3.97;1.50;;;;;;;;;;7386491;19;20062;-76
2023/03/11 08:07:39;;;;;;;6.85;1.40;;;;;;;;;;7386518;19;20011;-75
2023/03/11 08:10:05;;;;;;;5.57;1.40;;;;;;;;;;7385749;19;20002;-76
2023/03/11 08:12:31;;;;;;;4.93;1.15;;;;;;;;;;7386173;19;20058;-78
2023/03/11 08:14:56;;;;;;;6.68;1.40;;;;;;;;;;7387769;19;20018;-76
2023/03/11 08:17:21;;;;;;;3.92;1.50;;;;;;;;;;7385134;19;20003;-75
2023/03/11 08:19:48;;;;;;;5.93;1.50;;;;;;;;;;7389309;19;20007;-77
2023/03/11 08:22:14;;;;;;;5.57;1.65;;;;;;;;;;7387526;19;20014;-75
2023/03/11 08:24:39;;;;;;;7.05;1.50;;;;;;;;;;7389552;19;20002;-77
2023/03/11 08:27:05;;;;;;;4.65;1.40;;;;;;;;;;7386140;19;20365;-78
2023/03/11 08:29:30;;;;;;;4.05;1.20;;;;;;;;;;7386730;19;20013;-79
2023/03/11 08:31:56;;;;;;;7.13;1.70;;;;;;;;;;7388050;19;20010;-75
2023/03/11 08:34:21;;;;;;;12.48;1.77;;;;;;;;;;7383661;19;20007;-75
2023/03/11 08:36:46;;;;;;;8.35;1.50;;;;;;;;;;7386295;19;20011;-76
2023/03/11 08:39:12;;;;;;;5.63;1.63;;;;;;;;;;7387141;19;20006;-75
2023/03/11 08:41:37;;;;;;;7.70;1.90;;;;;;;;;;7389092;19;20016;-74
2023/03/11 08:44:03;;;;;;;7.47;1.60;;;;;;;;;;7383396;19;20041;-74
2023/03/11 08:46:34;;;;;;;5.10;1.60;;;;;;;;;;7386375;19;20483;-76
2023/03/11 08:49:00;;;;;;;5.40;1.30;;;;;;;;;;7385042;19;20007;-74
2023/03/11 08:51:25;;;;;;;6.45;1.50;;;;;;;;;;7387608;19;20029;-75
2023/03/11 08:53:52;;;;;;;2.72;1.25;;;;;;;;;;7386381;19;20293;-76
2023/03/11 08:56:17;;;;;;;2.80;1.67;;;;;;;;;;7384586;19;20025;-75
2023/03/11 08:58:43;;;;;;;6.35;1.27;;;;;;;;;;7388568;19;20472;-75
2023/03/11 09:01:11;;;;;;;1.83;1.00;;;;;;;;;;7385075;19;20074;-73
2023/03/11 09:03:36;;;;;;;2.67;1.35;;;;;;;;;;7387335;19;20006;-73
2023/03/11 09:06:05;;;;;;;10.85;1.90;;;;;;;;;;7383579;19;20328;-73
2023/03/11 09:08:31;;;;;;;2.53;1.27;;;;;;;;;;7388306;19;20016;-73
2023/03/11 09:10:56;;;;;;;5.75;1.65;;;;;;;;;;7384513;19;20300;-73
2023/03/11 09:13:22;;;;;;;5.70;1.55;;;;;;;;;;7381589;19;20027;-74
2023/03/11 09:15:48;;;;;;;4.88;1.33;;;;;;;;;;7383473;19;20028;-74
2023/03/11 09:18:15;;;;;;;3.53;1.58;;;;;;;;;;7382606;19;20075;-74
2023/03/11 09:20:41;;;;;;;3.03;1.10;;;;;;;;;;7384547;19;20054;-74
2023/03/11 09:23:08;;;;;;;3.10;1.38;;;;;;;;;;7385329;19;20006;-74
2023/03/11 09:25:33;;;;;;;7.60;1.80;;;;;;;;;;7387309;19;20009;-74
2023/03/11 09:27:58;;;;;;;7.13;1.50;;;;;;;;;;7387627;19;20401;-75
2023/03/11 09:30:24;;;;;;;4.78;1.55;;;;;;;;;;7384384;19;20026;-74
2023/03/11 09:32:49;;;;;;;3.88;1.85;;;;;;;;;;7384608;19;20500;-74
2023/03/11 09:35:14;;;;;;;6.28;1.60;;;;;;;;;;7387201;19;20320;-74
2023/03/11 09:37:40;;;;;;;7.55;1.70;;;;;;;;;;7386969;19;19998;-73
2023/03/11 09:40:06;;;;;;;4.65;1.50;;;;;;;;;;7387876;19;20003;-74
2023/03/11 09:43:00;;;;;;;3.20;1.17;;;;;;;;;;7388482;19;20292;-73
2023/03/11 09:45:28;;;;;;;4.05;1.17;;;;;;;;;;7384344;19;20002;-74
2023/03/11 09:48:15;;;;;;;2.17;1.30;;;;;;;;;;7384531;19;20002;-73
2023/03/11 09:50:47;;;;;;;3.70;1.08;;;;;;;;;;7382473;19;19999;-74
2023/03/11 09:53:24;;;;;;;3.53;1.20;;;;;;;;;;7386996;19;20356;-74
2023/03/11 09:55:56;;;;;;;6.60;1.80;;;;;;;;;;7383834;19;20008;-75
2023/03/11 09:58:49;;;;;;;3.50;1.30;;;;;;;;;;7386517;19;20064;-73
2023/03/11 10:01:36;;;;;;;4.63;1.50;;;;;;;;;;7388136;19;20002;-73
2023/03/11 10:04:08;;;;;;;4.93;1.30;;;;;;;;;;7386766;19;20007;-73
2023/03/11 10:06:34;;;;;;;3.40;1.30;;;;;;;;;;7385011;19;20492;-73
2023/03/11 10:09:03;;;;;;;3.08;1.42;;;;;;;;;;7386305;19;20015;-73
2023/03/11 10:12:01;;;;;;;3.67;1.25;;;;;;;;;;7386300;19;20010;-72
2023/03/11 10:14:35;;;;;;;5.50;1.30;;;;;;;;;;7384377;19;20502;-74
2023/03/11 10:17:31;;;;;;;2.72;1.33;;;;;;;;;;7387747;19;20014;-75
2023/03/11 10:20:51;;;;;;;3.33;1.23;;;;;;;;;;7391031;19;20006;-73
2023/03/11 10:23:42;;;;;;;3.03;1.02;;;;;;;;;;7383311;19;20098;-72
2023/03/11 10:26:35;;;;;;;3.75;1.10;;;;;;;;;;7388298;19;20006;-73
2023/03/11 10:29:13;;;;;;;5.68;2.42;;;;;;;;;;7391937;19;20053;-73
2023/03/11 10:32:03;;;;;;;2.30;1.15;;;;;;;;;;7384226;19;19999;-73
2023/03/11 10:34:37;;;;;;;2.77;0.93;;;;;;;;;;7383819;19;20010;-74
2023/03/11 10:37:28;;;;;;;3.25;1.48;;;;;;;;;;7382475;19;20027;-73
2023/03/11 10:39:54;;;;;;;4.53;1.30;;;;;;;;;;7384558;19;20026;-74
2023/03/11 10:42:23;;;;;;;2.63;1.40;;;;;;;;;;7391159;19;19998;-74
2023/03/11 10:44:48;;;;;;;6.43;1.63;;;;;;;;;;7388839;19;20103;-73
2023/03/11 10:47:32;;;;;;;4.22;1.20;;;;;;;;;;7389808;19;19998;-73
2023/03/11 10:49:57;;;;;;;5.70;1.50;;;;;;;;;;7391297;19;20464;-74
2023/03/11 10:52:22;;;;;;;3.53;1.20;;;;;;;;;;7389921;19;20007;-72
2023/03/11 10:54:58;;;;;;;3.15;1.20;;;;;;;;;;7390872;19;20022;-71
2023/03/11 10:57:32;;;;;;;1.60;1.05;;;;;;;;;;7392598;19;20005;-72
2023/03/11 11:00:00;;;;;;;3.85;1.27;;;;;;;;;;7392155;19;20002;-73
2023/03/11 11:02:37;;;;;;;4.80;1.77;;;;;;;;;;7390161;19;19999;-73
2023/03/11 11:05:24;;;;;;;6.07;1.40;;;;;;;;;;7395099;19;19998;-73
2023/03/11 11:08:00;;;;;;;4.88;1.48;;;;;;;;;;7391228;19;20019;-73
2023/03/11 11:10:27;;;;;;;3.95;1.27;;;;;;;;;;7393089;19;19994;-72
2023/03/11 11:13:11;;;;;;;4.72;1.60;;;;;;;;;;7391634;19;19998;-73
2023/03/11 11:15:55;;;;;;;1.67;1.05;;;;;;;;;;7389944;19;19998;-73
2023/03/11 11:18:22;;;;;;;2.78;1.40;;;;;;;;;;7391925;19;20066;-73
2023/03/11 11:21:01;;;;;;;1.77;1.30;;;;;;;;;;7391555;19;20003;-73
2023/03/11 11:23:42;;;;;;;7.15;1.60;;;;;;;;;;7391413;19;20022;-72
2023/03/11 11:26:21;;;;;;;3.30;1.33;;;;;;;;;;7390167;19;20002;-72
2023/03/11 11:29:12;;;;;;;3.88;1.60;;;;;;;;;;7395333;19;19998;-72
2023/03/11 11:31:39;;;;;;;3.83;1.52;;;;;;;;;;7391225;19;20479;-73
2023/03/11 11:34:28;;;;;;;4.75;1.48;;;;;;;;;;7390578;19;19999;-71
2023/03/11 11:36:56;;;;;;;3.55;1.10;;;;;;;;;;7389168;19;19990;-72
2023/03/11 11:39:24;;;;;;;4.25;1.58;;;;;;;;;;7389578;19;19999;-73
2023/03/11 11:41:51;;;;;;;2.60;1.23;;;;;;;;;;7390533;19;20003;-72
2023/03/11 11:44:20;;;;;;;2.67;1.20;;;;;;;;;;7389944;19;19990;-73
2023/03/11 11:46:52;;;;;;;6.50;1.60;;;;;;;;;;7387186;19;20006;-74
2023/03/11 11:49:30;;;;;;;4.18;1.23;;;;;;;;;;7394803;19;19999;-73
2023/03/11 11:52:07;;;;;;;3.08;1.50;;;;;;;;;;7388462;19;20132;-73
2023/03/11 11:54:36;;;;;;;0.82;0.80;;;;;;;;;;7389233;19;19994;-72
2023/03/11 11:57:10;;;;;;;2.53;1.33;;;;;;;;;;7388768;19;20005;-73
2023/03/11 11:59:36;;;;;;;3.40;1.10;;;;;;;;;;7390617;19;20362;-73
2023/03/11 12:02:23;;;;;;;3.78;1.10;;;;;;;;;;7389222;19;20511;-73
2023/03/11 12:05:07;;;;;;;2.22;1.10;;;;;;;;;;7390523;19;20062;-73
2023/03/11 12:08:05;;;;;;;6.45;2.28;;;;;;;;;;7389444;19;19999;-73
2023/03/11 12:10:49;;;;;;;1.60;1.45;;;;;;;;;;7390355;19;20018;-72
2023/03/11 12:13:39;;;;;;;6.03;1.30;;;;;;;;;;7389385;19;20003;-73
2023/03/11 12:16:22;;;;;;;1.40;1.10;;;;;;;;;;7387768;19;20026;-71
2023/03/11 12:18:53;;;;;;;3.28;1.38;;;;;;;;;;7389890;19;19994;-73
2023/03/11 12:21:34;;;;;;;2.47;1.20;;;;;;;;;;7389353;19;20504;-73
2023/03/11 12:24:17;;;;;;;6.55;1.55;;;;;;;;;;7389988;19;20678;-71
2023/03/11 12:26:45;;;;;;;0.80;0.70;;;;;;;;;;7387848;19;20567;-73
2023/03/11 12:29:25;;;;;;;7.47;1.38;;;;;;;;;;7389697;19;19995;-73
2023/03/11 12:31:52;;;;;;;1.77;1.15;;;;;;;;;;7389097;19;20327;-73
2023/03/11 12:34:20;;;;;;;4.22;1.30;;;;;;;;;;7388970;19;20010;-74
2023/03/11 12:36:47;;;;;;;3.50;1.58;;;;;;;;;;7385797;19;20345;-73
2023/03/11 12:39:42;;;;;;;3.05;1.30;;;;;;;;;;7389269;19;20005;-73
2023/03/11 12:42:19;;;;;;;2.75;1.40;;;;;;;;;;7389980;19;20036;-72
2023/03/11 12:44:45;;;;;;;4.13;1.40;;;;;;;;;;7390333;19;20022;-73
2023/03/11 12:47:10;;;;;;;4.05;1.40;;;;;;;;;;7388014;19;20054;-73
2023/03/11 12:49:48;;;;;;;2.60;1.20;;;;;;;;;;7390805;19;20004;-73
2023/03/11 12:52:13;;;;;;;3.45;1.27;;;;;;;;;;7390145;19;20349;-72
2023/03/11 12:54:39;;;;;;;5.13;1.23;;;;;;;;;;7389678;19;20048;-71
2023/03/11 12:57:33;;;;;;;5.07;1.42;;;;;;;;;;7391563;19;20583;-71
2023/03/11 13:00:40;;;;;;;5.40;2.45;;;;;;;;;;7388726;19;19998;-74
2023/03/11 13:03:15;;;;;;;4.88;1.50;;;;;;;;;;7386817;19;19995;-72
2023/03/11 13:05:52;;;;;;;2.58;1.08;;;;;;;;;;7385688;19;20003;-71
2023/03/11 13:08:24;;;;;;;2.63;1.35;;;;;;;;;;7389807;19;20029;-72
2023/03/11 13:10:51;;;;;;;5.10;1.50;;;;;;;;;;7388785;19;19995;-72
2023/03/11 13:13:38;;;;;;;5.18;1.83;;;;;;;;;;7387865;19;20006;-72
2023/03/11 13:16:13;;;;;;;2.40;1.30;;;;;;;;;;7384583;19;20015;-70
2023/03/11 13:18:46;;;;;;;1.13;1.02;;;;;;;;;;7386730;19;20006;-70
2023/03/11 13:21:27;;;;;;;2.97;1.23;;;;;;;;;;7386680;19;20019;-70
2023/03/11 13:24:18;;;;;;;2.57;1.30;;;;;;;;;;7386618;19;19999;-69
2023/03/11 13:26:58;;;;;;;3.42;1.13;;;;;;;;;;7385479;19;20268;-69
2023/03/11 13:29:26;;;;;;;1.63;1.27;;;;;;;;;;7388223;19;20022;-70
2023/03/11 13:32:08;;;;;;;5.38;1.48;;;;;;;;;;7384806;19;20309;-72
2023/03/11 13:34:52;;;;;;;2.67;1.52;;;;;;;;;;7385616;19;20007;-71
2023/03/11 13:37:24;;;;;;;5.88;1.35;;;;;;;;;;7385027;19;20002;-70
2023/03/11 13:39:53;;;;;;;;;;;;;;;;;;7387130;19;20022;-70
2023/03/11 13:42:29;;;;;;;3.17;1.10;;;;;;;;;;7386124;19;19922;-70
2023/03/11 13:44:56;;;;;;;3.53;1.30;;;;;;;;;;7386822;19;20044;-69
2023/03/11 13:47:23;;;;;;;3.50;1.40;;;;;;;;;;7387234;19;20011;-70
2023/03/11 13:50:26;;;;;;;4.97;1.33;;;;;;;;;;7387175;19;20138;-70
2023/03/11 13:52:53;;;;;;;5.60;1.60;;;;;;;;;;7383283;19;20224;-69
2023/03/11 13:55:22;;;;;;;1.70;1.20;;;;;;;;;;7384433;19;20015;-69
2023/03/11 13:57:52;;;;;;;3.78;1.33;;;;;;;;;;7386621;19;20002;-72
2023/03/11 14:00:26;;;;;;;4.82;1.50;;;;;;;;;;7386411;19;20400;-70
2023/03/11 14:02:55;;;;;;;2.60;1.05;;;;;;;;;;7385417;19;20002;-70
2023/03/11 14:05:25;;;;;;;3.50;1.20;;;;;;;;;;7386472;19;19999;-70
2023/03/11 14:07:51;;;;;;;2.20;1.38;;;;;;;;;;7386740;19;20031;-71
2023/03/11 14:10:25;;;;;;;6.20;1.70;;;;;;;;;;7386872;19;19994;-70
2023/03/11 14:13:02;;;;;;;4.38;1.25;;;;;;;;;;7383853;19;20461;-55
2023/03/11 14:15:30;;;;;;;5.18;1.58;;;;;;;;;;7385419;19;20446;-69
2023/03/11 14:18:24;;;;;;;4.95;1.40;;;;;;;;;;7391465;19;20027;-70
2023/03/11 14:20:49;;;;;;;5.82;1.60;;;;;;;;;;7393214;19;20471;-71
2023/03/11 14:23:18;;;;;;;3.05;1.20;;;;;;;;;;7392523;19;20011;-70
2023/03/11 14:25:43;;;;;;;3.05;1.20;;;;;;;;;;7382774;19;20108;-71
2023/03/11 14:28:18;;;;;;;2.65;1.45;;;;;;;;;;7388713;19;20452;-72
2023/03/11 14:30:58;;;;;;;3.95;1.48;;;;;;;;;;7385236;19;20476;-71
2023/03/11 14:33:24;;;;;;;4.03;1.88;;;;;;;;;;7389562;19;20014;-72
2023/03/11 14:35:54;;;;;;;4.30;1.17;;;;;;;;;;7384145;19;20374;-71
2023/03/11 14:38:22;;;;;;;6.00;1.50;;;;;;;;;;7389749;19;20079;-70
2023/03/11 14:40:55;;;;;;;2.92;1.45;;;;;;;;;;7386032;19;19998;-70
2023/03/11 14:43:20;;;;;;;8.00;1.30;;;;;;;;;;7388418;19;20009;-71
2023/03/11 14:45:48;;;;;;;4.68;1.58;;;;;;;;;;7387164;19;20011;-70
2023/03/11 14:48:21;;;;;;;3.42;1.23;;;;;;;;;;7390255;19;20124;-70
2023/03/11 14:50:48;;;;;;;4.72;1.23;;;;;;;;;;7387941;19;20011;-69
2023/03/11 14:53:25;;;;;;;4.88;1.35;;;;;;;;;;7391839;19;20011;-69
2023/03/11 14:56:00;;;;;;;7.03;1.65;;;;;;;;;;7385084;19;20021;-71
2023/03/11 14:58:29;;;;;;;2.85;1.25;;;;;;;;;;7387024;19;20090;-70